الصفحة الرئيسية
METAR-TAF:

METAR-TAF

مطار :

Akeno, اليابان

دائرة عرض: 34-32N, خط طول: 136-41E, ارتفاع: 6 متر

مراقبة الطقس الحالي

تاريخ ووقت الإصدار 22ساعات و 52 دقيقة قبل الساعة 02:44UTC
ريح 7 عقدة من الغرب/الشمال الغربي
درجة الحرارة 29°درجة مئوية
الرطوبة 66%
ضغط 1005 hPa
الرؤية 10 كم أو أكثر
غيوم قليلة على ارتفاع 3000 قدم
غيوم مفككة على ارتفاع 10000 قدم
غيوم مفككة على ارتفاع 12000 قدم
زخات من الأمطار الخفيفة

METAR: RJOE 240244Z 29007KT 9999 -SHRA FEW030 BKN100 BKN120 29/22 Q1005 RMK 1CU030 5AC100 6AC120 A2970

زمن: 10:36 (01:36 UTC)


TAF: مفقودة

أرصاد الطقس والتوقعات من أكثر من 4000 مطار (تقارير الطقس للمطار METAR والتنبؤ بالطقس بالمطارTAF).

المحطات المتاحة هي النقط الصفراء والحمراء على الخريطة.

حرك المؤشر فوق النقطة لمعرفة اسم المحطة.

ثم انقر لمعرفة أرصاد وتوقعات الطقس.

لتغيير الخارطة: اضغط على الأزرار الخضراء مع رمز الصليب الأسود للتكبير. على الزر الأخضر مع شرطة للتصغير، أو على الأسهم الخضراء للخرائط المجاورة.


METAR-TAF: